»·PEaware :: WAT169 KLAS-KDEN

WAT169 :: KLAS-KDEN

FLIGHT INFORMATION

Flight Status: Arrived
Operator:
Walker Air Transport
More flights by this operator :: More flights under this callsign
Pilot: Marty P. (27464)
Aircraft: BOEING 737-800
(B738)
More flights by this aircraft type
Origin: KLAS McCarran Intl
United States
Destination: KDEN Denver Intl
United States
More flights between these airports :: More routes between these airports
Route: TRALR9 TRALR NICLE BUMMP SSKII2
File this flight plan on PilotEdge
Remarks:
Altitude:
(Current/Filed)
39,000ft
Speed:
(Current/Filed)
520kts
Departed: 10-Jan-21 08:44 PM
Arrived: 10-Jan-21 10:12 PM
Distance/Time
Traveled:
544nm/1:28
Distance/Time
To Go:
Arrived

Flight Plot

Page will automatically refresh every two minutes.

Flight plan parsing failed; only flown route is shown


Map Options




Map Legend


Flown Route
Filed Route
Departure Airport
Arrival Airport
Navaid (VOR, NDB)
Fix

Horizontal Profiles

Position Reports

Time Latitude Longitude Heading Altitude Ground
Speed
10-Jan-21 20:03 36.081005 -115.147687 66 2100ft 0kts
10-Jan-21 20:04 36.081005 -115.147687 66 2099ft 0kts
10-Jan-21 20:05 36.081005 -115.147687 66 2099ft 0kts
10-Jan-21 20:06 36.081005 -115.147687 66 2099ft 0kts
10-Jan-21 20:07 36.081005 -115.147687 66 2099ft 0kts
10-Jan-21 20:08 36.081005 -115.147687 66 2099ft 0kts
10-Jan-21 20:09 36.081005 -115.147687 66 2099ft 0kts
10-Jan-21 20:10 36.081005 -115.147687 66 2099ft 0kts
10-Jan-21 20:11 36.081005 -115.147687 66 2099ft 0kts
10-Jan-21 20:12 36.081005 -115.147687 66 2099ft 0kts
10-Jan-21 20:13 36.081005 -115.147687 66 2099ft 0kts
10-Jan-21 20:14 36.081005 -115.147687 66 2099ft 0kts
10-Jan-21 20:15 36.081005 -115.147687 66 2099ft 0kts
10-Jan-21 20:16 36.081005 -115.147687 66 2099ft 0kts
10-Jan-21 20:17 36.081005 -115.147687 66 2099ft 0kts
10-Jan-21 20:18 36.081005 -115.147687 66 2099ft 0kts
10-Jan-21 20:19 36.081005 -115.147687 66 2099ft 0kts
10-Jan-21 20:20 36.081005 -115.147687 66 2099ft 0kts
10-Jan-21 20:21 36.081005 -115.147687 66 2099ft 0kts
10-Jan-21 20:22 36.081005 -115.147687 66 2099ft 0kts
10-Jan-21 20:23 36.081005 -115.147687 66 2099ft 0kts
10-Jan-21 20:24 36.081005 -115.147687 66 2099ft 0kts
10-Jan-21 20:25 36.081005 -115.147687 66 2099ft 0kts
10-Jan-21 20:26 36.081005 -115.147687 66 2099ft 0kts
10-Jan-21 20:27 36.081005 -115.147687 66 2099ft 0kts
10-Jan-21 20:28 36.081005 -115.147687 66 2099ft 0kts
10-Jan-21 20:29 36.081005 -115.147687 66 2099ft 0kts
10-Jan-21 20:30 36.080871 -115.148069 66 2101ft 2kts
10-Jan-21 20:31 36.080666 -115.148286 157 2102ft 6kts
10-Jan-21 20:32 36.079501 -115.147626 154 2102ft 2kts
10-Jan-21 20:33 36.079474 -115.147610 154 2101ft 0kts
10-Jan-21 20:34 36.079474 -115.147610 154 2101ft 0kts
10-Jan-21 20:35 36.079474 -115.147610 154 2101ft 0kts
10-Jan-21 20:36 36.079474 -115.147610 154 2101ft 0kts
10-Jan-21 20:37 36.079474 -115.147610 154 2101ft 0kts
10-Jan-21 20:38 36.079474 -115.147610 154 2101ft 0kts
10-Jan-21 20:39 36.078291 -115.143784 93 2092ft 28kts
10-Jan-21 20:40 36.078271 -115.132886 90 2059ft 35kts
10-Jan-21 20:41 36.078006 -115.122312 126 2039ft 16kts
10-Jan-21 20:43 36.076442 -115.122915 270 2041ft 35kts
10-Jan-21 20:44 36.076698 -115.173239 271 3468ft 183kts
10-Jan-21 20:45 36.066718 -115.246104 234 5663ft 247kts
10-Jan-21 20:46 36.003967 -115.285643 193 7215ft 269kts
10-Jan-21 20:47 35.929679 -115.285634 166 10723ft 297kts
10-Jan-21 20:48 35.866974 -115.206732 94 12438ft 375kts
10-Jan-21 20:49 35.871026 -115.076270 71 15460ft 389kts
10-Jan-21 20:50 35.916170 -114.954229 54 18133ft 400kts
10-Jan-21 20:51 35.968626 -114.831293 58 20588ft 417kts
10-Jan-21 20:52 36.019556 -114.699428 58 22777ft 432kts
10-Jan-21 20:53 36.071876 -114.563855 58 24710ft 445kts
10-Jan-21 20:54 36.125820 -114.423626 57 26549ft 455kts
10-Jan-21 20:55 36.176427 -114.277229 66 28205ft 472kts
10-Jan-21 20:56 36.205929 -114.116267 73 29671ft 487kts
10-Jan-21 20:57 36.228349 -113.949082 75 31016ft 496kts
10-Jan-21 20:57 36.245607 -113.808031 76 32332ft 495kts
10-Jan-21 20:58 36.265483 -113.640049 77 33938ft 489kts
10-Jan-21 21:00 36.287973 -113.446049 78 35612ft 482kts
10-Jan-21 21:00 36.303545 -113.309941 78 36598ft 479kts
10-Jan-21 21:01 36.343222 -113.155896 58 37539ft 467kts
10-Jan-21 21:02 36.405179 -113.015514 57 38325ft 466kts
10-Jan-21 21:03 36.467728 -112.874226 57 38995ft 466kts
10-Jan-21 21:04 36.530300 -112.732398 57 39360ft 472kts
10-Jan-21 21:05 36.593466 -112.588625 57 39366ft 482kts
10-Jan-21 21:06 36.658079 -112.440873 57 39366ft 489kts
10-Jan-21 21:07 36.723259 -112.291153 58 39365ft 493kts
10-Jan-21 21:08 36.788533 -112.140501 58 39364ft 494kts
10-Jan-21 21:09 36.853741 -111.989327 58 39356ft 495kts
10-Jan-21 21:10 36.918681 -111.838108 58 39340ft 494kts
10-Jan-21 21:11 36.982910 -111.687819 58 39338ft 493kts
10-Jan-21 21:12 37.047245 -111.536586 58 39337ft 492kts
10-Jan-21 21:13 37.111196 -111.385581 58 39349ft 491kts
10-Jan-21 21:14 37.174327 -111.235761 59 39347ft 490kts
10-Jan-21 21:15 37.237712 -111.084661 59 39348ft 490kts
10-Jan-21 21:16 37.301032 -110.932979 59 39367ft 489kts
10-Jan-21 21:17 37.363478 -110.782693 59 39375ft 488kts
10-Jan-21 21:18 37.426038 -110.631429 58 39375ft 487kts
10-Jan-21 21:19 37.473924 -110.515163 58 39375ft 487kts
10-Jan-21 21:20 37.534390 -110.367735 58 39374ft 486kts
10-Jan-21 21:21 37.596055 -110.216658 58 39375ft 485kts
10-Jan-21 21:22 37.657317 -110.065862 58 39377ft 484kts
10-Jan-21 21:23 37.718031 -109.915706 58 39383ft 483kts
10-Jan-21 21:24 37.779082 -109.764007 58 39382ft 483kts
10-Jan-21 21:25 37.839702 -109.612644 58 39375ft 483kts
10-Jan-21 21:26 37.899983 -109.461376 58 39368ft 483kts
10-Jan-21 21:27 37.960213 -109.309507 59 39366ft 483kts
10-Jan-21 21:28 38.020331 -109.157157 59 39364ft 482kts
10-Jan-21 21:29 38.080046 -109.005082 59 39338ft 480kts
10-Jan-21 21:30 38.137692 -108.852635 60 39329ft 480kts
10-Jan-21 21:31 38.195113 -108.699965 59 39329ft 478kts
10-Jan-21 21:32 38.253926 -108.548191 58 39331ft 478kts
10-Jan-21 21:33 38.312911 -108.396573 58 39344ft 477kts
10-Jan-21 21:34 38.371578 -108.245316 58 39382ft 477kts
10-Jan-21 21:35 38.430198 -108.093567 58 39385ft 477kts
10-Jan-21 21:36 38.488164 -107.941047 59 39384ft 478kts
10-Jan-21 21:37 38.545465 -107.787810 59 39385ft 478kts
10-Jan-21 21:38 38.602979 -107.634660 59 39383ft 478kts
10-Jan-21 21:39 38.660173 -107.482057 59 39380ft 477kts
10-Jan-21 21:40 38.717906 -107.328863 60 39357ft 476kts
10-Jan-21 21:41 38.775484 -107.176243 60 39347ft 476kts
10-Jan-21 21:42 38.832896 -107.023515 60 39347ft 475kts
10-Jan-21 21:43 38.890014 -106.871020 61 39330ft 474kts
10-Jan-21 21:44 38.944339 -106.725049 60 39308ft 443kts
10-Jan-21 21:45 38.997288 -106.582218 61 39265ft 437kts
10-Jan-21 21:46 39.048253 -106.441370 61 39256ft 437kts
10-Jan-21 21:47 39.099362 -106.300734 62 37624ft 429kts
10-Jan-21 21:48 39.149032 -106.163930 62 35213ft 419kts
10-Jan-21 21:49 39.197546 -106.029160 63 32281ft 416kts
10-Jan-21 21:50 39.246322 -105.893776 64 29033ft 413kts
10-Jan-21 21:51 39.294128 -105.760664 63 26194ft 403kts
10-Jan-21 21:52 39.340374 -105.631758 63 23673ft 390kts
10-Jan-21 21:53 39.385038 -105.508984 63 21981ft 360kts
10-Jan-21 21:54 39.428592 -105.400551 55 21018ft 325kts
10-Jan-21 21:55 39.479729 -105.305591 54 19338ft 320kts
10-Jan-21 21:56 39.530810 -105.211452 54 17543ft 320kts
10-Jan-21 21:57 39.580161 -105.119920 54 16993ft 309kts
10-Jan-21 21:58 39.629249 -105.028765 54 16749ft 300kts
10-Jan-21 21:59 39.676910 -104.940024 54 15223ft 298kts
10-Jan-21 22:00 39.726354 -104.859702 33 13450ft 283kts
10-Jan-21 22:01 39.800067 -104.839897 359 12360ft 274kts
10-Jan-21 22:02 39.874632 -104.839592 0 10982ft 261kts
10-Jan-21 22:03 39.946605 -104.838583 0 9660ft 258kts
10-Jan-21 22:04 40.015653 -104.837175 359 8337ft 241kts
10-Jan-21 22:05 40.059893 -104.793789 85 8027ft 238kts
10-Jan-21 22:06 40.059411 -104.714452 110 8032ft 195kts
10-Jan-21 22:07 40.014736 -104.684911 183 7820ft 199kts
10-Jan-21 22:08 39.965494 -104.686016 182 6821ft 158kts
10-Jan-21 22:09 39.921663 -104.686529 182 5963ft 156kts
10-Jan-21 22:10 39.880465 -104.687090 179 5445ft 119kts
10-Jan-21 22:11 39.864478 -104.686996 140 5444ft 15kts
10-Jan-21 22:12 39.864188 -104.681489 91 5444ft 23kts
10-Jan-21 22:13 39.864075 -104.677857 161 5444ft 0kts
10-Jan-21 22:14 39.863602 -104.677845 179 5444ft 0kts
10-Jan-21 22:15 39.863602 -104.677845 179 5444ft 0kts
10-Jan-21 22:16 39.863602 -104.677845 179 5444ft 0kts
10-Jan-21 22:17 39.863602 -104.677845 179 5444ft 0kts
10-Jan-21 22:18 39.863602 -104.677845 179 5444ft 0kts
10-Jan-21 22:19 39.863602 -104.677845 179 5444ft 0kts
10-Jan-21 22:20 39.863602 -104.677845 179 5444ft 0kts
10-Jan-21 22:21 39.863602 -104.677845 179 5444ft 0kts
10-Jan-21 22:22 39.863602 -104.677845 179 5444ft 0kts
10-Jan-21 22:23 39.863602 -104.677845 179 5444ft 0kts
10-Jan-21 22:25 39.863602 -104.677845 179 5444ft 0kts
10-Jan-21 22:26 39.863602 -104.677845 179 5444ft 0kts

Navigation Log

Ident Type
Flight plan parsing failed, navigation log unavailable